createdAt,value
2018-09-10T00:00:37.439Z,12.50
2018-09-10T00:03:05.957Z,12.40
2018-09-10T00:05:34.100Z,12.30
2018-09-10T00:08:02.774Z,12.40
2018-09-10T00:10:30.943Z,12.30
2018-09-10T00:12:59.714Z,12.40
2018-09-10T00:15:27.872Z,12.50
2018-09-10T00:17:56.051Z,12.50
2018-09-10T00:20:24.970Z,12.60
2018-09-10T00:22:53.133Z,12.60
2018-09-10T00:25:21.334Z,12.40
2018-09-10T00:27:49.480Z,12.20
2018-09-10T00:30:17.689Z,12.10
2018-09-10T00:32:46.724Z,12.20
2018-09-10T00:35:15.716Z,12.30
2018-09-10T00:37:43.908Z,12.30
2018-09-10T00:40:12.059Z,12.40
2018-09-10T00:42:40.205Z,12.30
2018-09-10T00:45:08.669Z,12.30
2018-09-10T00:47:38.126Z,12.30
2018-09-10T00:50:06.350Z,12.40
2018-09-10T00:52:34.492Z,12.30
2018-09-10T00:55:02.699Z,12.30
2018-09-10T00:57:32.045Z,12.20
2018-09-10T01:00:00.199Z,12.00
2018-09-10T01:02:28.412Z,11.60
2018-09-10T01:04:56.541Z,11.60
2018-09-10T01:07:24.705Z,11.60
2018-09-10T01:09:52.910Z,11.60
2018-09-10T01:12:21.094Z,11.60
2018-09-10T01:14:50.173Z,11.70
2018-09-10T01:17:18.348Z,11.70
2018-09-10T01:19:46.516Z,11.90
2018-09-10T01:22:14.770Z,12.10
2018-09-10T01:24:42.932Z,12.10
2018-09-10T01:27:11.676Z,12.00
2018-09-10T01:29:39.957Z,12.00
2018-09-10T01:32:08.065Z,12.00
2018-09-10T01:34:41.589Z,12.20
2018-09-10T01:37:09.758Z,12.30
2018-09-10T01:39:37.936Z,12.40
2018-09-10T01:42:06.444Z,12.40
2018-09-10T01:44:34.637Z,12.60
2018-09-10T01:47:02.839Z,12.70
2018-09-10T01:49:31.421Z,12.70
2018-09-10T01:51:59.593Z,12.60
2018-09-10T01:54:27.785Z,12.40
2018-09-10T01:56:55.985Z,12.40
2018-09-10T01:59:24.132Z,12.40
2018-09-10T02:01:52.298Z,12.30
2018-09-10T02:04:21.077Z,12.20
2018-09-10T02:06:49.585Z,12.10
2018-09-10T02:09:18.625Z,12.10
2018-09-10T02:11:46.793Z,11.90
2018-09-10T02:14:16.018Z,11.70
2018-09-10T02:16:45.045Z,11.50
2018-09-10T02:19:13.765Z,11.30
2018-09-10T02:21:41.985Z,11.30
2018-09-10T02:24:11.137Z,11.40
2018-09-10T02:26:39.717Z,11.50
2018-09-10T02:29:07.951Z,11.50
2018-09-10T02:31:36.092Z,11.50
2018-09-10T02:34:04.261Z,11.60
2018-09-10T02:36:32.433Z,11.70
2018-09-10T02:39:00.916Z,11.80
2018-09-10T02:41:29.168Z,11.70
2018-09-10T02:43:57.292Z,11.70
2018-09-10T02:46:25.458Z,11.50
2018-09-10T02:48:53.618Z,11.50
2018-09-10T02:51:21.765Z,11.60
2018-09-10T02:53:49.910Z,11.80
2018-09-10T02:56:18.038Z,11.90
2018-09-10T02:58:46.208Z,11.80
2018-09-10T03:01:14.325Z,11.90
2018-09-10T03:03:42.483Z,11.90
2018-09-10T03:06:10.678Z,12.00
2018-09-10T03:08:38.816Z,11.90
2018-09-10T03:11:07.025Z,12.00
2018-09-10T03:13:35.180Z,12.10
2018-09-10T03:16:03.805Z,12.00
2018-09-10T03:18:32.061Z,12.10
2018-09-10T03:21:00.237Z,12.10
2018-09-10T03:23:29.100Z,12.10
2018-09-10T03:25:57.352Z,12.00
2018-09-10T03:28:25.502Z,11.90
2018-09-10T03:30:55.008Z,11.90
2018-09-10T03:33:23.202Z,12.10
2018-09-10T03:35:51.687Z,12.10
2018-09-10T03:38:19.868Z,12.00
2018-09-10T03:40:48.076Z,11.90
2018-09-10T03:43:16.324Z,11.90
2018-09-10T03:45:44.832Z,12.00
2018-09-10T03:48:12.988Z,12.00
2018-09-10T03:50:41.156Z,11.90
2018-09-10T03:53:09.833Z,11.80
2018-09-10T03:55:38.671Z,11.90
2018-09-10T03:58:06.882Z,11.80
2018-09-10T04:00:35.909Z,11.70
2018-09-10T04:03:04.597Z,11.60
2018-09-10T04:05:32.765Z,11.50
2018-09-10T04:08:00.932Z,11.50
2018-09-10T04:10:29.139Z,11.40
2018-09-10T04:12:57.276Z,11.30
2018-09-10T04:15:25.520Z,11.20
2018-09-10T04:17:53.712Z,11.20
2018-09-10T04:20:21.876Z,11.20
2018-09-10T04:22:50.034Z,11.20
2018-09-10T04:25:18.265Z,11.20
2018-09-10T04:27:46.414Z,11.20
2018-09-10T04:30:15.776Z,11.20
2018-09-10T04:32:43.997Z,11.20
2018-09-10T04:35:12.660Z,11.30
2018-09-10T04:37:41.157Z,11.30
2018-09-10T04:40:09.700Z,11.40
2018-09-10T04:42:37.847Z,11.50
2018-09-10T04:45:06.069Z,11.40
2018-09-10T04:47:34.248Z,11.30
2018-09-10T04:50:02.839Z,11.20
2018-09-10T04:52:31.900Z,11.20
2018-09-10T04:55:00.079Z,11.40
2018-09-10T04:57:28.221Z,11.30
2018-09-10T04:59:57.396Z,11.30
2018-09-10T05:02:25.528Z,11.40
2018-09-10T05:04:53.709Z,11.50
2018-09-10T05:07:21.889Z,11.80
2018-09-10T05:09:50.063Z,11.90
2018-09-10T05:12:18.217Z,11.80
2018-09-10T05:14:46.393Z,11.70
2018-09-10T05:17:14.973Z,11.80
2018-09-10T05:19:43.173Z,11.70
2018-09-10T05:22:11.335Z,11.90
2018-09-10T05:24:39.793Z,12.00
2018-09-10T05:27:07.953Z,12.30
2018-09-10T05:29:36.146Z,12.50
2018-09-10T05:32:04.962Z,12.80
2018-09-10T05:34:33.089Z,13.20
2018-09-10T05:37:01.797Z,13.50
2018-09-10T05:39:29.983Z,13.60
2018-09-10T05:41:58.129Z,13.50
2018-09-10T05:44:26.325Z,13.50
2018-09-10T05:46:54.468Z,13.50
2018-09-10T05:49:22.669Z,13.40
2018-09-10T05:51:50.850Z,13.40
2018-09-10T05:54:19.011Z,13.50
2018-09-10T05:56:47.176Z,13.60
2018-09-10T05:59:15.809Z,13.70
2018-09-10T06:01:44.268Z,14.00
2018-09-10T06:04:12.473Z,14.50
2018-09-10T06:06:40.673Z,14.80
2018-09-10T06:09:08.856Z,15.10
2018-09-10T06:11:37.553Z,15.60
2018-09-10T06:14:05.744Z,16.10
2018-09-10T06:16:33.957Z,16.30
2018-09-10T06:19:02.099Z,16.40
2018-09-10T06:21:30.284Z,16.60
2018-09-10T06:23:59.678Z,17.10
2018-09-10T06:26:28.089Z,17.80
2018-09-10T06:28:57.218Z,18.30
2018-09-10T06:31:29.128Z,18.80
2018-09-10T06:33:57.411Z,19.50
2018-09-10T06:36:26.298Z,19.90
2018-09-10T06:38:54.441Z,20.20
2018-09-10T06:41:22.882Z,20.70
2018-09-10T06:43:52.208Z,21.10
2018-09-10T06:46:20.604Z,21.20
2018-09-10T06:48:48.781Z,20.60
2018-09-10T06:51:17.504Z,20.30
2018-09-10T06:53:45.661Z,20.20
2018-09-10T06:56:14.089Z,19.90
2018-09-10T06:58:42.292Z,20.10
2018-09-10T07:01:10.433Z,20.60
2018-09-10T07:03:38.948Z,21.60
2018-09-10T07:06:07.120Z,22.20
2018-09-10T07:08:35.306Z,22.20
2018-09-10T07:11:03.457Z,22.20
2018-09-10T07:13:32.188Z,22.20
2018-09-10T07:16:00.341Z,22.10
2018-09-10T07:18:29.377Z,22.20
2018-09-10T07:20:58.380Z,22.40
2018-09-10T07:23:27.222Z,22.50
2018-09-10T07:25:55.376Z,22.60
2018-09-10T07:28:23.503Z,22.50
2018-09-10T07:30:51.676Z,22.60
2018-09-10T07:33:20.118Z,23.00
2018-09-10T07:35:48.285Z,23.70
2018-09-10T07:38:16.465Z,24.00
2018-09-10T07:40:44.617Z,24.30
2018-09-10T07:43:13.404Z,24.70
2018-09-10T07:45:41.561Z,25.00
2018-09-10T07:48:10.358Z,24.80
2018-09-10T07:50:38.494Z,24.50
2018-09-10T07:53:07.169Z,24.00
2018-09-10T07:55:35.356Z,23.60
2018-09-10T07:58:04.357Z,23.60
2018-09-10T08:00:32.509Z,24.10
2018-09-10T08:03:00.759Z,24.30
2018-09-10T08:05:28.914Z,24.40
2018-09-10T08:07:57.061Z,24.20
2018-09-10T08:10:25.259Z,24.10
2018-09-10T08:12:54.589Z,24.10
2018-09-10T08:15:22.789Z,24.40
2018-09-10T08:17:51.344Z,24.60
2018-09-10T08:20:19.497Z,24.90
2018-09-10T08:22:47.689Z,24.90
2018-09-10T08:25:15.934Z,25.00
2018-09-10T08:27:44.076Z,25.20
2018-09-10T08:30:12.239Z,25.20
2018-09-10T08:32:40.428Z,25.00
2018-09-10T08:35:08.721Z,24.90
2018-09-10T08:37:37.873Z,24.80
2018-09-10T08:40:06.040Z,24.60
2018-09-10T08:42:34.248Z,24.70
2018-09-10T08:45:02.436Z,25.20
2018-09-10T08:47:31.041Z,25.30
2018-09-10T08:49:59.442Z,25.30
2018-09-10T08:52:28.228Z,24.80
2018-09-10T08:54:56.656Z,24.40
2018-09-10T08:57:24.610Z,24.30
2018-09-10T08:59:53.342Z,24.90
2018-09-10T09:02:21.494Z,25.50
2018-09-10T09:04:49.693Z,25.90
2018-09-10T09:07:17.859Z,26.10
2018-09-10T09:09:46.308Z,25.50
2018-09-10T09:12:14.499Z,25.30
2018-09-10T09:14:43.421Z,25.40
2018-09-10T09:17:12.171Z,25.50
2018-09-10T09:19:40.360Z,25.40
2018-09-10T09:22:08.489Z,25.20
2018-09-10T09:24:37.036Z,25.20
2018-09-10T09:27:05.901Z,25.50
2018-09-10T09:29:34.677Z,25.70
2018-09-10T09:32:03.744Z,25.80
2018-09-10T09:34:37.244Z,26.10
2018-09-10T09:37:10.862Z,26.70
2018-09-10T09:39:45.033Z,27.30
2018-09-10T09:42:18.568Z,27.60
2018-09-10T09:44:52.089Z,27.60
2018-09-10T09:47:20.216Z,27.60
2018-09-10T09:49:48.328Z,27.50
2018-09-10T09:52:16.499Z,28.10
2018-09-10T09:54:44.656Z,29.20
2018-09-10T09:57:13.369Z,29.90
2018-09-10T09:59:41.788Z,29.50
2018-09-10T10:02:15.449Z,29.10
2018-09-10T10:04:43.609Z,29.10
2018-09-10T10:07:11.761Z,29.20
2018-09-10T10:09:39.921Z,29.30
2018-09-10T10:12:08.186Z,29.60
2018-09-10T10:14:36.244Z,29.90
2018-09-10T10:17:04.404Z,29.90
2018-09-10T10:19:32.552Z,30.40
2018-09-10T10:22:01.415Z,30.70
2018-09-10T10:24:29.508Z,30.60
2018-09-10T10:26:57.697Z,30.40
2018-09-10T10:29:25.896Z,30.40
2018-09-10T10:31:54.069Z,30.70
2018-09-10T10:34:22.197Z,30.40
2018-09-10T10:36:50.464Z,30.40
2018-09-10T10:39:18.666Z,30.40
2018-09-10T10:41:46.821Z,30.70
2018-09-10T10:44:15.000Z,30.80
2018-09-10T10:46:43.176Z,31.30
2018-09-10T10:49:11.301Z,31.90
2018-09-10T10:51:39.460Z,31.90
2018-09-10T10:54:08.251Z,31.40
2018-09-10T10:56:36.422Z,31.90
2018-09-10T10:59:04.956Z,32.20
2018-09-10T11:01:33.100Z,32.80
2018-09-10T11:04:01.312Z,33.10
2018-09-10T11:06:29.477Z,32.80
2018-09-10T11:08:57.689Z,32.80
2018-09-10T11:11:26.332Z,32.70
2018-09-10T11:13:54.506Z,32.40
2018-09-10T11:16:22.682Z,32.50
2018-09-10T11:18:51.456Z,32.20
2018-09-10T11:21:19.608Z,31.90
2018-09-10T11:23:47.757Z,31.90
2018-09-10T11:26:16.668Z,31.90
2018-09-10T11:28:44.858Z,32.00
2018-09-10T11:31:13.035Z,31.40
2018-09-10T11:33:41.177Z,31.60
2018-09-10T11:36:09.353Z,32.20
2018-09-10T11:38:37.523Z,32.20
2018-09-10T11:41:05.720Z,32.20
2018-09-10T11:43:33.877Z,32.10
2018-09-10T11:46:02.787Z,32.20
2018-09-10T11:48:30.948Z,32.10
2018-09-10T11:50:59.114Z,31.90
2018-09-10T11:53:27.252Z,32.10
2018-09-10T11:55:55.375Z,32.10
2018-09-10T11:58:23.527Z,32.10
2018-09-10T12:00:51.640Z,32.30
2018-09-10T12:03:19.809Z,31.80
2018-09-10T12:05:47.997Z,31.40
2018-09-10T12:08:16.773Z,31.50
2018-09-10T12:10:44.891Z,31.90
2018-09-10T12:13:13.320Z,32.40
2018-09-10T12:15:41.506Z,32.70
2018-09-10T12:18:09.941Z,32.90
2018-09-10T12:20:38.128Z,32.60
2018-09-10T12:23:06.512Z,32.40
2018-09-10T12:25:34.693Z,32.20
2018-09-10T12:28:03.557Z,32.30
2018-09-10T12:30:32.305Z,32.30
2018-09-10T12:33:00.484Z,32.30
2018-09-10T12:35:29.730Z,32.10
2018-09-10T12:37:58.197Z,32.50
2018-09-10T12:40:26.329Z,33.10
2018-09-10T12:42:54.481Z,33.50
2018-09-10T12:45:22.636Z,33.80
2018-09-10T12:47:51.073Z,34.40
2018-09-10T12:50:20.104Z,34.20
2018-09-10T12:52:48.241Z,33.80
2018-09-10T12:55:16.581Z,33.00
2018-09-10T12:57:45.152Z,32.50
2018-09-10T13:00:13.297Z,32.30
2018-09-10T13:02:41.957Z,32.20
2018-09-10T13:05:10.101Z,31.90
2018-09-10T13:07:38.270Z,30.80
2018-09-10T13:10:06.569Z,30.70
2018-09-10T13:12:34.717Z,30.70
2018-09-10T13:15:03.457Z,30.70
2018-09-10T13:17:31.589Z,30.70
2018-09-10T13:19:59.737Z,30.60
2018-09-10T13:22:27.900Z,30.20
2018-09-10T13:24:56.025Z,29.70
2018-09-10T13:27:24.140Z,29.40
2018-09-10T13:29:52.344Z,29.80
2018-09-10T13:32:20.428Z,30.20
2018-09-10T13:34:48.541Z,30.60
2018-09-10T13:37:16.737Z,30.70
2018-09-10T13:39:44.856Z,30.40
2018-09-10T13:42:12.996Z,29.70
2018-09-10T13:44:41.129Z,29.90
2018-09-10T13:47:09.633Z,30.00
2018-09-10T13:49:37.811Z,29.70
2018-09-10T13:52:05.933Z,29.20
2018-09-10T13:54:34.585Z,28.90
2018-09-10T13:57:02.699Z,28.90
2018-09-10T13:59:31.244Z,29.00
2018-09-10T14:01:59.362Z,28.80
2018-09-10T14:04:27.497Z,28.90
2018-09-10T14:06:56.948Z,29.00
2018-09-10T14:09:25.093Z,29.10
2018-09-10T14:11:53.214Z,28.80
2018-09-10T14:14:21.352Z,28.80
2018-09-10T14:16:49.762Z,28.80
2018-09-10T14:19:17.921Z,28.80
2018-09-10T14:21:46.058Z,28.70
2018-09-10T14:24:14.201Z,28.10
2018-09-10T14:26:42.327Z,27.90
2018-09-10T14:29:10.460Z,28.10
2018-09-10T14:31:38.588Z,28.20
2018-09-10T14:34:06.812Z,28.20
2018-09-10T14:36:34.946Z,28.40
2018-09-10T14:39:03.108Z,28.40
2018-09-10T14:41:31.244Z,28.20
2018-09-10T14:43:59.379Z,28.10
2018-09-10T14:46:27.514Z,28.00
2018-09-10T14:48:55.645Z,28.20
2018-09-10T14:51:24.413Z,28.40
2018-09-10T14:53:53.292Z,28.30
2018-09-10T14:56:21.900Z,28.30
2018-09-10T14:58:50.180Z,28.40
2018-09-10T15:01:18.345Z,28.40
2018-09-10T15:03:46.465Z,28.20
2018-09-10T15:06:14.594Z,28.00
2018-09-10T15:08:42.740Z,27.70
2018-09-10T15:11:11.396Z,27.70
2018-09-10T15:13:39.529Z,27.50
2018-09-10T15:16:07.659Z,27.70
2018-09-10T15:18:35.862Z,27.70
2018-09-10T15:21:03.951Z,27.60
2018-09-10T15:23:32.064Z,27.60
2018-09-10T15:26:00.229Z,27.70
2018-09-10T15:28:28.347Z,27.70
2018-09-10T15:30:56.464Z,27.70
2018-09-10T15:33:24.609Z,27.60
2018-09-10T15:35:52.762Z,27.60
2018-09-10T15:38:21.421Z,27.50
2018-09-10T15:40:49.573Z,27.40
2018-09-10T15:43:18.020Z,27.20
2018-09-10T15:45:46.817Z,27.00
2018-09-10T15:48:14.941Z,26.90
2018-09-10T15:50:43.099Z,27.00
2018-09-10T15:53:11.208Z,26.90
2018-09-10T15:55:39.341Z,26.90
2018-09-10T15:58:08.457Z,26.90
2018-09-10T16:00:36.573Z,27.00
2018-09-10T16:03:04.779Z,26.90
2018-09-10T16:05:32.912Z,26.90
2018-09-10T16:08:01.101Z,26.90
2018-09-10T16:10:29.268Z,26.90
2018-09-10T16:12:57.400Z,27.00
2018-09-10T16:15:26.133Z,27.10
2018-09-10T16:17:55.142Z,27.00
2018-09-10T16:20:23.278Z,27.00
2018-09-10T16:22:51.638Z,27.00
2018-09-10T16:25:19.768Z,27.00
2018-09-10T16:27:47.895Z,27.00
2018-09-10T16:30:16.561Z,26.90
2018-09-10T16:32:44.788Z,26.80
2018-09-10T16:35:12.917Z,26.80
2018-09-10T16:37:41.040Z,26.50
2018-09-10T16:40:09.167Z,26.40
2018-09-10T16:42:37.276Z,26.10
2018-09-10T16:45:05.590Z,25.80
2018-09-10T16:47:33.697Z,25.60
2018-09-10T16:50:02.681Z,25.50
2018-09-10T16:52:30.800Z,25.50
2018-09-10T16:54:59.033Z,25.40
2018-09-10T16:57:27.076Z,25.30
2018-09-10T16:59:55.218Z,25.20
2018-09-10T17:02:23.328Z,25.00
2018-09-10T17:04:51.489Z,24.80
2018-09-10T17:07:19.611Z,24.60
2018-09-10T17:09:47.868Z,24.40
2018-09-10T17:12:16.484Z,24.30
2018-09-10T17:14:44.639Z,24.10
2018-09-10T17:17:12.713Z,24.00
2018-09-10T17:19:40.841Z,23.90
2018-09-10T17:22:08.965Z,23.80
2018-09-10T17:24:37.136Z,23.70
2018-09-10T17:27:05.309Z,23.50
2018-09-10T17:29:34.149Z,23.40
2018-09-10T17:32:02.661Z,23.40
2018-09-10T17:34:30.775Z,23.30
2018-09-10T17:36:58.903Z,23.20
2018-09-10T17:39:27.075Z,23.10
2018-09-10T17:41:55.197Z,23.00
2018-09-10T17:44:24.249Z,22.90
2018-09-10T17:46:52.393Z,22.80
2018-09-10T17:49:20.501Z,22.70
2018-09-10T17:51:48.644Z,22.70
2018-09-10T17:54:16.786Z,22.60
2018-09-10T17:56:44.889Z,22.50
2018-09-10T17:59:13.666Z,22.50
2018-09-10T18:01:41.799Z,22.40
2018-09-10T18:04:09.908Z,22.40
2018-09-10T18:06:38.036Z,22.30
2018-09-10T18:09:08.544Z,22.30
2018-09-10T18:11:37.584Z,22.20
2018-09-10T18:14:05.730Z,22.10
2018-09-10T18:16:34.481Z,22.00
2018-09-10T18:19:03.541Z,21.90
2018-09-10T18:21:34.582Z,21.80
2018-09-10T18:24:04.461Z,21.80
2018-09-10T18:26:33.598Z,21.70
2018-09-10T18:29:01.784Z,21.60
2018-09-10T18:31:29.997Z,21.50
2018-09-10T18:33:58.096Z,21.40
2018-09-10T18:36:26.254Z,21.40
2018-09-10T18:38:54.376Z,21.30
2018-09-10T18:41:22.502Z,21.30
2018-09-10T18:43:51.394Z,21.20
2018-09-10T18:46:19.518Z,21.10
2018-09-10T18:48:47.683Z,21.10
2018-09-10T18:51:16.980Z,21.00
2018-09-10T18:53:45.115Z,20.90
2018-09-10T18:56:13.242Z,20.90
2018-09-10T18:58:41.384Z,20.80
2018-09-10T19:01:09.617Z,20.60
2018-09-10T19:03:38.920Z,20.60
2018-09-10T19:06:07.060Z,20.60
2018-09-10T19:08:35.185Z,20.40
2018-09-10T19:11:04.604Z,20.40
2018-09-10T19:13:32.724Z,20.20
2018-09-10T19:16:01.211Z,20.00
2018-09-10T19:18:34.880Z,20.00
2018-09-10T19:21:04.320Z,19.80
2018-09-10T19:23:32.632Z,19.70
2018-09-10T19:26:01.791Z,19.60
2018-09-10T19:28:30.156Z,19.40
2018-09-10T19:30:58.351Z,19.30
2018-09-10T19:33:26.469Z,19.20
2018-09-10T19:35:54.593Z,19.10
2018-09-10T19:38:23.392Z,19.00
2018-09-10T19:40:52.477Z,19.00
2018-09-10T19:43:20.669Z,18.90
2018-09-10T19:45:48.799Z,18.90
2018-09-10T19:48:17.546Z,18.90
2018-09-10T19:50:45.676Z,19.00
2018-09-10T19:53:13.797Z,19.10
2018-09-10T19:55:42.164Z,19.10
2018-09-10T19:58:10.270Z,19.10
2018-09-10T20:00:39.252Z,19.00
2018-09-10T20:03:07.375Z,19.10
2018-09-10T20:05:35.808Z,19.00
2018-09-10T20:08:03.924Z,18.70
2018-09-10T20:10:32.055Z,18.50
2018-09-10T20:13:00.221Z,18.40
2018-09-10T20:15:28.349Z,18.40
2018-09-10T20:17:56.460Z,18.30
2018-09-10T20:20:28.639Z,18.30
2018-09-10T20:22:56.813Z,18.20
2018-09-10T20:25:24.996Z,18.20
2018-09-10T20:27:53.206Z,18.30
2018-09-10T20:30:21.828Z,18.30
2018-09-10T20:32:50.028Z,18.30
2018-09-10T20:35:18.996Z,18.30
2018-09-10T20:37:47.540Z,18.20
2018-09-10T20:40:15.770Z,18.00
2018-09-10T20:42:43.916Z,18.00
2018-09-10T20:45:12.521Z,17.90
2018-09-10T20:47:41.579Z,17.70
2018-09-10T20:50:10.160Z,17.50
2018-09-10T20:52:38.660Z,17.30
2018-09-10T20:55:06.812Z,17.10
2018-09-10T20:57:35.828Z,17.00
2018-09-10T21:00:05.304Z,17.10
2018-09-10T21:02:33.478Z,17.10
2018-09-10T21:05:01.664Z,17.10
2018-09-10T21:07:29.865Z,16.90
2018-09-10T21:09:57.972Z,16.80
2018-09-10T21:12:26.177Z,16.60
2018-09-10T21:14:54.343Z,16.60
2018-09-10T21:17:22.527Z,16.50
2018-09-10T21:19:51.266Z,16.30
2018-09-10T21:22:19.380Z,16.20
2018-09-10T21:24:47.572Z,16.10
2018-09-10T21:27:16.352Z,16.10
2018-09-10T21:29:44.596Z,16.00
2018-09-10T21:32:12.793Z,16.00
2018-09-10T21:34:40.956Z,16.00
2018-09-10T21:37:09.156Z,16.00
2018-09-10T21:39:37.320Z,16.00
2018-09-10T21:42:07.505Z,15.80
2018-09-10T21:44:35.654Z,15.70
2018-09-10T21:47:03.873Z,15.60
2018-09-10T21:49:32.016Z,15.50
2018-09-10T21:52:00.945Z,15.60
2018-09-10T21:54:29.132Z,15.70
2018-09-10T21:56:58.056Z,15.80
2018-09-10T21:59:26.209Z,15.80
2018-09-10T22:01:54.648Z,15.80
2018-09-10T22:04:22.821Z,15.60
2018-09-10T22:06:52.649Z,15.50
2018-09-10T22:09:20.860Z,15.40
2018-09-10T22:11:54.332Z,15.40
2018-09-10T22:14:23.704Z,15.50
2018-09-10T22:16:51.835Z,15.60
2018-09-10T22:19:19.980Z,15.70
2018-09-10T22:21:48.192Z,15.70
2018-09-10T22:24:16.333Z,15.50
2018-09-10T22:26:44.520Z,15.20
2018-09-10T22:29:13.120Z,15.00
2018-09-10T22:31:41.605Z,15.10
2018-09-10T22:34:09.748Z,15.20
2018-09-10T22:36:38.468Z,15.20
2018-09-10T22:39:09.491Z,15.20
2018-09-10T22:41:37.667Z,15.10
2018-09-10T22:44:05.971Z,14.90
2018-09-10T22:46:34.832Z,14.70
2018-09-10T22:49:03.017Z,14.70
2018-09-10T22:51:32.292Z,14.70
2018-09-10T22:54:00.979Z,14.70
2018-09-10T22:56:29.132Z,14.80
2018-09-10T22:58:57.800Z,14.80
2018-09-10T23:01:25.944Z,14.80
2018-09-10T23:03:55.155Z,14.80
2018-09-10T23:06:23.305Z,14.90
2018-09-10T23:08:51.432Z,14.90
2018-09-10T23:11:19.579Z,14.90
2018-09-10T23:13:47.748Z,15.00
2018-09-10T23:16:15.934Z,15.10
2018-09-10T23:18:44.062Z,14.90
2018-09-10T23:21:12.208Z,14.80
2018-09-10T23:23:40.716Z,14.80
2018-09-10T23:26:09.216Z,14.70
2018-09-10T23:28:37.576Z,14.80
2018-09-10T23:31:06.437Z,14.90
2018-09-10T23:33:35.188Z,15.00
2018-09-10T23:36:04.141Z,15.00
2018-09-10T23:38:32.528Z,14.80
2018-09-10T23:41:02.618Z,14.60
2018-09-10T23:43:30.721Z,14.50
2018-09-10T23:45:59.140Z,14.50
2018-09-10T23:48:27.900Z,14.60
2018-09-10T23:50:56.336Z,14.80
2018-09-10T23:53:24.540Z,15.00
2018-09-10T23:55:53.120Z,15.00
2018-09-10T23:58:21.297Z,15.10
